Winslow Lindbergh Regional Airport
KINW : now visible

Airfield :











YOU CAN JOIN US ON...

 
LOGIN :

Register | Disclaimer

   EN    FR    IT 

 









Legend :    VFR   Marginal VFR   IFR   Intensive IFR   Very Intensive IFR
Visi :
Ceiling :
>= 8 km
>= 3000ft
5 to 8 km
1000 to 3000 ft
1500m to 5 km
500 to 1000 ft
800 to 1500m
200 to 500 ft
< 800m
< 200 ft
Symbols :   Thunderstorms  Fog  Heavy snow  Heavy precipitations  Wind > 20 kt






- Airport Elevation : 4941 ft


KINW - Winslow Lindbergh Regional

CURRENT METAR :
  • 020156Z AUTO 23007KT 10SM OVC065 04/00 A2997 RMK AO2 SLP147 T00440000

EXPIRED METARs :
  • 020056Z AUTO 23014G25KT 10SM BKN042 OVC070 06/M01 A2995 RMK AO2 WSHFT 0014 SLP136 T00561006
  • 020034Z AUTO 25019G25KT 10SM BKN042 BKN050 OVC065 07/M01 A2995 RMK AO2 WSHFT 0014 T00671011
  • 012356Z AUTO 32015KT 10SM BKN070 BKN100 08/M03 A2993 RMK AO2 SLP122 60000 T00781033 10111 20078 53012
  • 012256Z AUTO 27014KT 10SM BKN100 09/M04 A2990 RMK AO2 SLP112 T00891039
  • 012156Z AUTO 34009KT 10SM FEW060 FEW110 08/M02 A2990 RMK AO2 WSHFT 2052 RAB41E52 SLP112 P0000 T00831017

TAF KINW
Valid from the 02 at 00:00 until the 03 at 00:00 UTC


012320Z 0200/0224 27015G25KT P6SM FEW060 FEW110
TEMPO 0200/0202 -SHRA BKN030
FM020200 25010KT P6SM SCT060
FM020900 VRB04KT P6SM SCT100
FM022100 28010KT P6SM BKN250
KZAB FIR / North America



MET'MAP, your aeronautical weather chart ! - Copyright ORBIFLY December 2007 - Disclaimer

ORBIFLY MET'MAP TEAM :

Programming & Development : Alexandra Zaïnal
Original concept : Baudouin d'Aumeries
Technical & hardware support : Manuel Goepfert
Assistance : Marc-Olivier Méhu




SOURCES & CREDITS :

   NOAA       Earth
Advisory